^^
Paulen-Weather Station Historical Data
Daily Summary for August 08, 2022 Units:  Metric    English   Both
Daily Weekly Monthly Yearly Custom
  High: Low: Average:
Temperature: 16 °C 12 °C 13.6 °C
Dew Point: 14 °C 11 °C 12.3 °C
Humidity: 96% 82% 92%
Wind Speed: 14km/h 3km/h 7.6km/h
Wind Gust: 9km/h - -
Wind- - WSW
Pressure: 1022.25 hPa 1020.62 hPa -
Precipitation: 0 mm    
Historical Graphs
 
 
Tabular Data for August 08, 2022
Time Temperature Dew Point Pressure Wind Wind Speed Wind Gust Humidity Rainfall Rate (Hourly) solar
00:04 15 °C 14 °C 1020.69 hPa SW 6 km/h 4 km/h 94% 0 mm 0 W/m2
00:09 15 °C 14 °C 1020.62 hPa WSW 5 km/h 4 km/h 94% 0 mm 0 W/m2
00:14 14 °C 14 °C 1020.66 hPa SW 4 km/h 4 km/h 94% 0 mm 0 W/m2
00:19 14 °C 13 °C 1020.73 hPa WSW 5 km/h 3 km/h 94% 0 mm 0 W/m2
00:24 14 °C 13 °C 1020.76 hPa WSW 5 km/h 4 km/h 94% 0 mm 0 W/m2
00:29 14 °C 14 °C 1020.79 hPa WSW 5 km/h 5 km/h 94% 0 mm 0 W/m2
00:34 14 °C 14 °C 1020.73 hPa SW 5 km/h 3 km/h 95% 0 mm 0 W/m2
00:39 14 °C 14 °C 1020.69 hPa SW 3 km/h 4 km/h 95% 0 mm 0 W/m2
00:44 14 °C 14 °C 1020.69 hPa SW 5 km/h 4 km/h 95% 0 mm 0 W/m2
00:49 14 °C 14 °C 1020.62 hPa SW 6 km/h 6 km/h 95% 0 mm 0 W/m2
00:54 14 °C 14 °C 1020.66 hPa SW 6 km/h 5 km/h 95% 0 mm 0 W/m2
00:59 14 °C 14 °C 1020.69 hPa SW 7 km/h 5 km/h 95% 0 mm 0 W/m2
01:04 14 °C 14 °C 1020.69 hPa SW 6 km/h 5 km/h 95% 0 mm 0 W/m2
01:09 14 °C 14 °C 1020.76 hPa SW 5 km/h 4 km/h 95% 0 mm 0 W/m2
01:14 14 °C 14 °C 1020.79 hPa SW 5 km/h 5 km/h 95% 0 mm 0 W/m2
01:19 14 °C 14 °C 1020.86 hPa SW 6 km/h 5 km/h 95% 0 mm 0 W/m2
01:24 14 °C 13 °C 1020.86 hPa SSW 6 km/h 5 km/h 95% 0 mm 0 W/m2
01:29 14 °C 13 °C 1020.93 hPa SW 6 km/h 6 km/h 95% 0 mm 0 W/m2
01:34 14 °C 14 °C 1020.93 hPa SW 6 km/h 5 km/h 95% 0 mm 0 W/m2
01:39 14 °C 14 °C 1021 hPa WSW 5 km/h 4 km/h 95% 0 mm 0 W/m2
01:44 14 °C 14 °C 1021.03 hPa SW 5 km/h 3 km/h 95% 0 mm 0 W/m2
01:49 14 °C 13 °C 1021.03 hPa SSW 5 km/h 4 km/h 95% 0 mm 0 W/m2
01:54 14 °C 13 °C 1021.06 hPa SW 4 km/h 3 km/h 95% 0 mm 0 W/m2
01:59 14 °C 13 °C 1021.06 hPa SW 5 km/h 5 km/h 95% 0 mm 0 W/m2
02:04 14 °C 13 °C 1021.06 hPa SW 6 km/h 4 km/h 96% 0 mm 0 W/m2
02:09 14 °C 13 °C 1021.1 hPa SW 4 km/h 3 km/h 96% 0 mm 0 W/m2
02:14 14 °C 13 °C 1021.13 hPa WSW 5 km/h 5 km/h 96% 0 mm 0 W/m2
02:19 14 °C 13 °C 1021.1 hPa WSW 8 km/h 6 km/h 96% 0 mm 0 W/m2
02:24 14 °C 13 °C 1021.1 hPa SW 6 km/h 4 km/h 96% 0 mm 0 W/m2
02:29 14 °C 13 °C 1021.06 hPa SW 7 km/h 4 km/h 96% 0 mm 0 W/m2
02:34 14 °C 13 °C 1021.1 hPa SW 5 km/h 5 km/h 96% 0 mm 0 W/m2
02:39 14 °C 13 °C 1021.1 hPa SW 6 km/h 6 km/h 96% 0 mm 0 W/m2
02:44 13 °C 13 °C 1021.13 hPa WSW 7 km/h 5 km/h 95% 0 mm 0 W/m2
02:49 13 °C 13 °C 1021.17 hPa SW 8 km/h 6 km/h 95% 0 mm 0 W/m2
02:54 13 °C 13 °C 1021.23 hPa WSW 7 km/h 6 km/h 95% 0 mm 0 W/m2
02:59 13 °C 12 °C 1021.27 hPa WSW 8 km/h 6 km/h 95% 0 mm 0 W/m2
03:04 13 °C 12 °C 1021.27 hPa WSW 9 km/h 7 km/h 95% 0 mm 0 W/m2
03:09 13 °C 12 °C 1021.27 hPa SW 8 km/h 6 km/h 95% 0 mm 0 W/m2
03:14 13 °C 12 °C 1021.27 hPa WSW 7 km/h 6 km/h 94% 0 mm 0 W/m2
03:19 13 °C 12 °C 1021.27 hPa WSW 8 km/h 7 km/h 94% 0 mm 0 W/m2
03:24 13 °C 12 °C 1021.3 hPa SW 6 km/h 6 km/h 94% 0 mm 0 W/m2
03:29 13 °C 12 °C 1021.3 hPa WSW 7 km/h 5 km/h 93% 0 mm 0 W/m2
03:34 13 °C 12 °C 1021.3 hPa W 7 km/h 6 km/h 93% 0 mm 0 W/m2
03:39 13 °C 12 °C 1021.33 hPa W 6 km/h 6 km/h 93% 0 mm 0 W/m2
03:44 13 °C 12 °C 1021.23 hPa W 7 km/h 5 km/h 92% 0 mm 0 W/m2
03:49 13 °C 11 °C 1021.23 hPa W 6 km/h 4 km/h 92% 0 mm 0 W/m2
03:54 13 °C 11 °C 1021.23 hPa WNW 6 km/h 5 km/h 92% 0 mm 0 W/m2
03:59 13 °C 11 °C 1021.3 hPa WSW 5 km/h 4 km/h 91% 0 mm 0 W/m2
04:04 13 °C 11 °C 1021.37 hPa SW 5 km/h 5 km/h 91% 0 mm 0 W/m2
04:09 13 °C 11 °C 1021.4 hPa SW 6 km/h 6 km/h 91% 0 mm 0 W/m2
04:14 13 °C 11 °C 1021.37 hPa WSW 5 km/h 5 km/h 91% 0 mm 0 W/m2
04:19 13 °C 11 °C 1021.4 hPa SW 6 km/h 5 km/h 91% 0 mm 0 W/m2
04:24 13 °C 11 °C 1021.44 hPa SW 6 km/h 5 km/h 91% 0 mm 0 W/m2
04:29 13 °C 11 °C 1021.47 hPa SW 5 km/h 4 km/h 91% 0 mm 0 W/m2
04:34 13 °C 11 °C 1021.47 hPa SW 6 km/h 5 km/h 92% 0 mm 0 W/m2
04:39 12 °C 11 °C 1021.4 hPa SW 8 km/h 7 km/h 92% 0 mm 0 W/m2
04:44 12 °C 11 °C 1021.4 hPa WSW 11 km/h 8 km/h 92% 0 mm 0 W/m2
04:49 12 °C 11 °C 1021.44 hPa WSW 11 km/h 6 km/h 92% 0 mm 0 W/m2
04:54 12 °C 11 °C 1021.44 hPa WSW 9 km/h 7 km/h 92% 0 mm 0 W/m2
04:59 12 °C 11 °C 1021.47 hPa WSW 8 km/h 6 km/h 91% 0 mm 0 W/m2
05:04 12 °C 11 °C 1021.44 hPa SW 7 km/h 6 km/h 91% 0 mm 0 W/m2
05:09 12 °C 11 °C 1021.4 hPa WSW 8 km/h 5 km/h 91% 0 mm 0 W/m2
05:14 12 °C 11 °C 1021.4 hPa WSW 9 km/h 7 km/h 92% 0 mm 0 W/m2
05:19 12 °C 11 °C 1021.47 hPa W 11 km/h 8 km/h 92% 0 mm 0 W/m2
05:24 12 °C 11 °C 1021.5 hPa W 14 km/h 9 km/h 92% 0 mm 0 W/m2
05:29 13 °C 11 °C 1021.61 hPa WSW 8 km/h 6 km/h 91% 0 mm 0 W/m2
05:34 13 °C 11 °C 1021.71 hPa WSW 10 km/h 9 km/h 91% 0 mm 5 W/m2
05:39 13 °C 11 °C 1021.67 hPa WSW 12 km/h 8 km/h 91% 0 mm 5 W/m2
05:44 13 °C 11 °C 1021.67 hPa WSW 7 km/h 6 km/h 91% 0 mm 9 W/m2
05:49 13 °C 11 °C 1021.71 hPa W 10 km/h 7 km/h 91% 0 mm 18 W/m2
05:54 13 °C 11 °C 1021.71 hPa W 10 km/h 7 km/h 91% 0 mm 25 W/m2
05:59 13 °C 11 °C 1021.67 hPa WSW 7 km/h 5 km/h 91% 0 mm 30 W/m2
06:04 13 °C 11 °C 1021.71 hPa WSW 9 km/h 8 km/h 91% 0 mm 35 W/m2
06:09 13 °C 12 °C 1021.71 hPa W 10 km/h 7 km/h 91% 0 mm 44 W/m2
06:14 13 °C 12 °C 1021.74 hPa WSW 8 km/h 7 km/h 91% 0 mm 51 W/m2
06:19 13 °C 12 °C 1021.74 hPa WSW 9 km/h 9 km/h 91% 0 mm 58 W/m2
06:24 13 °C 12 °C 1021.78 hPa WSW 10 km/h 8 km/h 90% 0 mm 67 W/m2
06:29 13 °C 12 °C 1021.81 hPa W 9 km/h 6 km/h 90% 0 mm 74 W/m2
06:34 13 °C 12 °C 1021.81 hPa WSW 8 km/h 6 km/h 90% 0 mm 83 W/m2
06:39 13 °C 12 °C 1021.84 hPa WSW 11 km/h 8 km/h 90% 0 mm 91 W/m2
06:44 14 °C 12 °C 1021.88 hPa W 9 km/h 6 km/h 90% 0 mm 100 W/m2
06:49 14 °C 12 °C 1021.91 hPa WSW 11 km/h 9 km/h 89% 0 mm 109 W/m2
06:54 14 °C 12 °C 1021.84 hPa WSW 11 km/h 8 km/h 89% 0 mm 120 W/m2
06:59 14 °C 12 °C 1021.91 hPa WSW 8 km/h 6 km/h 89% 0 mm 127 W/m2
07:04 14 °C 12 °C 1021.91 hPa WSW 10 km/h 7 km/h 89% 0 mm 135 W/m2
07:09 14 °C 12 °C 1021.98 hPa WSW 12 km/h 7 km/h 88% 0 mm 148 W/m2
07:14 14 °C 12 °C 1022.08 hPa W 9 km/h 6 km/h 88% 0 mm 156 W/m2
07:19 14 °C 12 °C 1022.08 hPa WSW 10 km/h 8 km/h 87% 0 mm 169 W/m2
07:24 14 °C 12 °C 1022.11 hPa SSW 11 km/h 8 km/h 87% 0 mm 181 W/m2
07:29 15 °C 12 °C 1022.11 hPa WSW 8 km/h 7 km/h 87% 0 mm 192 W/m2
07:34 15 °C 12 °C 1022.11 hPa WSW 11 km/h 8 km/h 85% 0 mm 202 W/m2
07:39 15 °C 12 °C 1022.11 hPa SW 9 km/h 7 km/h 85% 0 mm 214 W/m2
07:44 15 °C 13 °C 1022.11 hPa WSW 10 km/h 9 km/h 85% 0 mm 225 W/m2
07:49 15 °C 13 °C 1022.15 hPa W 9 km/h 5 km/h 84% 0 mm 230 W/m2
07:54 15 °C 13 °C 1022.18 hPa WSW 7 km/h 8 km/h 84% 0 mm 243 W/m2
07:59 16 °C 13 °C 1022.22 hPa W 10 km/h 6 km/h 83% 0 mm 251 W/m2
08:04 16 °C 13 °C 1022.25 hPa W 11 km/h 7 km/h 82% 0 mm 260 W/m2
08:09 16 °C 13 °C 1022.25 hPa W 11 km/h 8 km/h 82% 0 mm 272 W/m2
08:14 16 °C 13 °C 1022.22 hPa W 13 km/h 9 km/h 82% 0 mm 283 W/m2
08:19 16 °C 13 °C 1022.22 hPa SSW 8 km/h 5 km/h 82% 0 mm 295 W/m2
Compliments of Weather Underground - 2 mb